Maxwell Air Force Base
KMXF : now visible

Airfield :











YOU CAN JOIN US ON...

 
LOGIN :

Register | Disclaimer

   EN    FR    IT 

 









Legend :    VFR   Marginal VFR   IFR   Intensive IFR   Very Intensive IFR
Visi :
Ceiling :
>= 8 km
>= 3000ft
5 to 8 km
1000 to 3000 ft
1500m to 5 km
500 to 1000 ft
800 to 1500m
200 to 500 ft
< 800m
< 200 ft
Symbols :   Thunderstorms  Fog  Heavy snow  Heavy precipitations  Wind > 20 kt






- Airport Elevation : 171 ft


KMXF - Maxwell Air Force Base

CURRENT METAR :
  • 100701Z AUTO 27004KT 10SM FEW042 FEW070 SCT085 17/10 A2988 RMK AO2 RAE01 SLP120 $

EXPIRED METARs :
  • 100656Z AUTO 00000KT 10SM -RA FEW041 SCT070 BKN085 18/09 A2989 RMK AO2 RAB07E16DZB29E36RAB36 PRESRR SLP123 P0001 T01760090 $
  • 100629Z AUTO 00000KT 10SM -DZ OVC065 20/07 A2986 RMK AO2 RAB07E16DZB29 SLP113 $
  • 100556Z AUTO 36004KT 10SM OVC060 20/10 A2983 RMK AO2 SLP103 60000 T01950097 10245 20194 402850179 50002 $
  • 100456Z AUTO 35006KT 10SM SCT060 20/10 A2983 RMK AO2 SLP103 T02020097 $

TAF AMD TAF KMXF
Valid from the 10 at 01:00 until the 11 at 01:00 UTC


100110Z 1001/1101 31009KT 9999 FEW025 SCT200 QNH2976INS
BECMG 1008/1009 34009KT 9000 -RA SCT050 BKN080 OVC200 QNH2992INS
BECMG 1013/1014 34015G20KT 9999 NSW FEW250 QNH3000INS
BECMG 1017/1018 35010G15KT 9999 FEW250 QNH2999INS
BECMG 1023/1024 35006KT 9999 SKC QNH3003INS TX23/1001Z TN13/1013Z LAST NO AMDS AFT 1003 NEXT 1011



MET'MAP, your aeronautical weather chart ! - Copyright ORBIFLY December 2007 - Disclaimer

ORBIFLY MET'MAP TEAM :

Programming & Development : Alexandra Zaïnal
Concept & original design : Baudouin d'Aumeries
Assistance for programming : Marc-Olivier Méhu
Technical & hardware support : Manuel Goepfert

Contact : metmap@orbifly.com




SOURCES & CREDITS :

   NOAA       Earth
Advisory